sensor_id;sensor_type;location;lat;lon;timestamp;temperature;humidity
75155;HTU21D;63735;44.730;37.818;2023-09-30T00:01:00;21.61;41.11
75155;HTU21D;63735;44.730;37.818;2023-09-30T00:03:27;21.55;41.21
75155;HTU21D;63735;44.730;37.818;2023-09-30T00:05:53;21.54;41.31
75155;HTU21D;63735;44.730;37.818;2023-09-30T00:08:19;21.54;41.40
75155;HTU21D;63735;44.730;37.818;2023-09-30T00:10:45;21.52;41.40
75155;HTU21D;63735;44.730;37.818;2023-09-30T00:13:12;21.52;41.44
75155;HTU21D;63735;44.730;37.818;2023-09-30T00:15:38;21.49;41.44
75155;HTU21D;63735;44.730;37.818;2023-09-30T00:18:04;21.47;41.47
75155;HTU21D;63735;44.730;37.818;2023-09-30T00:20:31;21.43;41.51
75155;HTU21D;63735;44.730;37.818;2023-09-30T00:22:59;21.37;41.51
75155;HTU21D;63735;44.730;37.818;2023-09-30T00:25:25;21.32;41.55
75155;HTU21D;63735;44.730;37.818;2023-09-30T00:27:51;21.28;41.58
75155;HTU21D;63735;44.730;37.818;2023-09-30T00:30:17;21.25;41.58
75155;HTU21D;63735;44.730;37.818;2023-09-30T00:32:43;21.22;41.56
75155;HTU21D;63735;44.730;37.818;2023-09-30T00:35:09;21.18;41.64
75155;HTU21D;63735;44.730;37.818;2023-09-30T00:37:40;21.14;41.70
75155;HTU21D;63735;44.730;37.818;2023-09-30T00:40:07;21.09;41.74
75155;HTU21D;63735;44.730;37.818;2023-09-30T00:42:38;21.09;41.84
75155;HTU21D;63735;44.730;37.818;2023-09-30T00:45:05;21.09;41.85
75155;HTU21D;63735;44.730;37.818;2023-09-30T00:47:31;21.10;41.84
75155;HTU21D;63735;44.730;37.818;2023-09-30T00:49:59;21.09;41.84
75155;HTU21D;63735;44.730;37.818;2023-09-30T00:52:25;21.09;41.94
75155;HTU21D;63735;44.730;37.818;2023-09-30T00:54:53;21.09;41.97
75155;HTU21D;63735;44.730;37.818;2023-09-30T00:57:20;21.11;41.97
75155;HTU21D;63735;44.730;37.818;2023-09-30T00:59:47;21.13;41.86
75155;HTU21D;63735;44.730;37.818;2023-09-30T01:02:19;21.10;41.87
75155;HTU21D;63735;44.730;37.818;2023-09-30T01:04:45;21.10;41.77
75155;HTU21D;63735;44.730;37.818;2023-09-30T01:07:11;21.08;41.75
75155;HTU21D;63735;44.730;37.818;2023-09-30T01:09:38;21.06;41.80
75155;HTU21D;63735;44.730;37.818;2023-09-30T01:12:04;21.04;41.75
75155;HTU21D;63735;44.730;37.818;2023-09-30T01:14:32;21.00;41.76
75155;HTU21D;63735;44.730;37.818;2023-09-30T01:17:00;20.96;41.72
75155;HTU21D;63735;44.730;37.818;2023-09-30T01:19:26;20.94;41.69
75155;HTU21D;63735;44.730;37.818;2023-09-30T01:21:59;20.93;41.65
75155;HTU21D;63735;44.730;37.818;2023-09-30T01:24:26;20.94;41.64
75155;HTU21D;63735;44.730;37.818;2023-09-30T01:26:52;20.93;41.63
75155;HTU21D;63735;44.730;37.818;2023-09-30T01:29:19;20.91;41.55
75155;HTU21D;63735;44.730;37.818;2023-09-30T01:31:46;20.92;41.48
75155;HTU21D;63735;44.730;37.818;2023-09-30T01:34:16;20.86;41.59
75155;HTU21D;63735;44.730;37.818;2023-09-30T01:36:42;20.84;41.67
75155;HTU21D;63735;44.730;37.818;2023-09-30T01:39:12;20.83;41.68
75155;HTU21D;63735;44.730;37.818;2023-09-30T01:41:42;20.84;41.71
75155;HTU21D;63735;44.730;37.818;2023-09-30T01:44:08;20.84;41.74
75155;HTU21D;63735;44.730;37.818;2023-09-30T01:46:36;20.85;41.83
75155;HTU21D;63735;44.730;37.818;2023-09-30T01:49:02;20.85;41.94
75155;HTU21D;63735;44.730;37.818;2023-09-30T01:51:29;20.85;42.01
75155;HTU21D;63735;44.730;37.818;2023-09-30T01:53:57;20.86;42.00
75155;HTU21D;63735;44.730;37.818;2023-09-30T01:56:23;20.86;42.00
75155;HTU21D;63735;44.730;37.818;2023-09-30T01:58:50;20.86;41.99
75155;HTU21D;63735;44.730;37.818;2023-09-30T02:01:16;20.85;42.07
75155;HTU21D;63735;44.730;37.818;2023-09-30T02:03:42;20.80;42.18
75155;HTU21D;63735;44.730;37.818;2023-09-30T02:06:08;20.78;42.27
75155;HTU21D;63735;44.730;37.818;2023-09-30T02:08:34;20.76;42.45
75155;HTU21D;63735;44.730;37.818;2023-09-30T02:11:03;20.76;42.55
75155;HTU21D;63735;44.730;37.818;2023-09-30T02:13:34;20.75;42.59
75155;HTU21D;63735;44.730;37.818;2023-09-30T02:16:03;20.70;42.71
75155;HTU21D;63735;44.730;37.818;2023-09-30T02:18:29;20.69;42.74
75155;HTU21D;63735;44.730;37.818;2023-09-30T02:20:57;20.64;42.86
75155;HTU21D;63735;44.730;37.818;2023-09-30T02:23:25;20.60;42.93
75155;HTU21D;63735;44.730;37.818;2023-09-30T02:25:51;20.60;43.09
75155;HTU21D;63735;44.730;37.818;2023-09-30T02:28:17;20.58;43.21
75155;HTU21D;63735;44.730;37.818;2023-09-30T02:30:44;20.57;43.28
75155;HTU21D;63735;44.730;37.818;2023-09-30T02:33:10;20.55;43.32
75155;HTU21D;63735;44.730;37.818;2023-09-30T02:35:36;20.51;43.42
75155;HTU21D;63735;44.730;37.818;2023-09-30T02:38:04;20.48;43.51
75155;HTU21D;63735;44.730;37.818;2023-09-30T02:40:30;20.47;43.59
75155;HTU21D;63735;44.730;37.818;2023-09-30T02:42:56;20.46;43.77
75155;HTU21D;63735;44.730;37.818;2023-09-30T02:45:23;20.46;44.00
75155;HTU21D;63735;44.730;37.818;2023-09-30T02:47:49;20.47;44.15
75155;HTU21D;63735;44.730;37.818;2023-09-30T02:50:15;20.46;44.22
75155;HTU21D;63735;44.730;37.818;2023-09-30T02:52:41;20.42;44.33
75155;HTU21D;63735;44.730;37.818;2023-09-30T02:55:11;20.39;44.51
75155;HTU21D;63735;44.730;37.818;2023-09-30T02:57:38;20.35;44.63
75155;HTU21D;63735;44.730;37.818;2023-09-30T03:00:05;20.36;44.86
75155;HTU21D;63735;44.730;37.818;2023-09-30T03:02:55;20.39;44.99
75155;HTU21D;63735;44.730;37.818;2023-09-30T03:05:21;20.36;45.10
75155;HTU21D;63735;44.730;37.818;2023-09-30T03:07:49;20.35;45.23
75155;HTU21D;63735;44.730;37.818;2023-09-30T03:10:18;20.35;45.35
75155;HTU21D;63735;44.730;37.818;2023-09-30T03:12:49;20.36;45.35
75155;HTU21D;63735;44.730;37.818;2023-09-30T03:15:16;20.37;45.41
75155;HTU21D;63735;44.730;37.818;2023-09-30T03:17:42;20.37;45.51
75155;HTU21D;63735;44.730;37.818;2023-09-30T03:20:09;20.37;45.61
75155;HTU21D;63735;44.730;37.818;2023-09-30T03:22:42;20.33;45.58
75155;HTU21D;63735;44.730;37.818;2023-09-30T03:25:10;20.30;45.77
75155;HTU21D;63735;44.730;37.818;2023-09-30T03:27:37;20.34;46.00
75155;HTU21D;63735;44.730;37.818;2023-09-30T03:30:08;20.40;46.21
75155;HTU21D;63735;44.730;37.818;2023-09-30T03:32:35;20.47;46.29
75155;HTU21D;63735;44.730;37.818;2023-09-30T03:35:10;20.50;46.47
75155;HTU21D;63735;44.730;37.818;2023-09-30T03:37:37;20.53;46.57
75155;HTU21D;63735;44.730;37.818;2023-09-30T03:40:03;20.55;46.64
75155;HTU21D;63735;44.730;37.818;2023-09-30T03:42:39;20.56;46.47
75155;HTU21D;63735;44.730;37.818;2023-09-30T03:45:05;20.51;46.34
75155;HTU21D;63735;44.730;37.818;2023-09-30T03:47:36;20.47;46.09
75155;HTU21D;63735;44.730;37.818;2023-09-30T03:50:03;20.34;46.02
75155;HTU21D;63735;44.730;37.818;2023-09-30T03:52:30;20.25;45.99
75155;HTU21D;63735;44.730;37.818;2023-09-30T03:54:59;20.20;45.96
75155;HTU21D;63735;44.730;37.818;2023-09-30T03:57:25;20.17;45.85
75155;HTU21D;63735;44.730;37.818;2023-09-30T03:59:53;20.12;45.81
75155;HTU21D;63735;44.730;37.818;2023-09-30T04:02:19;20.10;45.86
75155;HTU21D;63735;44.730;37.818;2023-09-30T04:04:45;20.06;45.77
75155;HTU21D;63735;44.730;37.818;2023-09-30T04:07:12;20.01;45.76
75155;HTU21D;63735;44.730;37.818;2023-09-30T04:09:38;19.97;45.75
75155;HTU21D;63735;44.730;37.818;2023-09-30T04:12:05;19.92;45.82
75155;HTU21D;63735;44.730;37.818;2023-09-30T04:14:31;19.91;45.91
75155;HTU21D;63735;44.730;37.818;2023-09-30T04:16:59;19.97;45.99
75155;HTU21D;63735;44.730;37.818;2023-09-30T04:19:25;20.00;45.95
75155;HTU21D;63735;44.730;37.818;2023-09-30T04:21:52;20.01;46.09
75155;HTU21D;63735;44.730;37.818;2023-09-30T04:24:18;20.11;46.22
75155;HTU21D;63735;44.730;37.818;2023-09-30T04:26:45;20.22;46.15
75155;HTU21D;63735;44.730;37.818;2023-09-30T04:29:19;20.32;46.21
75155;HTU21D;63735;44.730;37.818;2023-09-30T04:31:45;20.47;46.04
75155;HTU21D;63735;44.730;37.818;2023-09-30T04:34:12;20.53;46.02
75155;HTU21D;63735;44.730;37.818;2023-09-30T04:36:39;20.56;46.03
75155;HTU21D;63735;44.730;37.818;2023-09-30T04:39:05;20.61;46.02
75155;HTU21D;63735;44.730;37.818;2023-09-30T04:41:31;20.68;46.04
75155;HTU21D;63735;44.730;37.818;2023-09-30T04:43:57;20.75;46.09
75155;HTU21D;63735;44.730;37.818;2023-09-30T04:46:22;21.21;45.48
75155;HTU21D;63735;44.730;37.818;2023-09-30T04:48:50;21.99;44.06
75155;HTU21D;63735;44.730;37.818;2023-09-30T04:51:17;22.94;42.08
75155;HTU21D;63735;44.730;37.818;2023-09-30T04:53:45;23.64;40.97
75155;HTU21D;63735;44.730;37.818;2023-09-30T04:56:13;24.54;39.23
75155;HTU21D;63735;44.730;37.818;2023-09-30T04:58:39;24.86;38.58
75155;HTU21D;63735;44.730;37.818;2023-09-30T05:01:04;24.82;38.57
75155;HTU21D;63735;44.730;37.818;2023-09-30T05:03:35;24.24;39.49
75155;HTU21D;63735;44.730;37.818;2023-09-30T05:06:01;23.62;40.70
75155;HTU21D;63735;44.730;37.818;2023-09-30T05:08:27;23.32;41.40
75155;HTU21D;63735;44.730;37.818;2023-09-30T05:10:54;23.16;41.51
75155;HTU21D;63735;44.730;37.818;2023-09-30T05:13:21;23.10;41.67
75155;HTU21D;63735;44.730;37.818;2023-09-30T05:15:49;23.13;41.81
75155;HTU21D;63735;44.730;37.818;2023-09-30T05:18:17;23.25;41.86
75155;HTU21D;63735;44.730;37.818;2023-09-30T05:20:43;23.54;41.34
75155;HTU21D;63735;44.730;37.818;2023-09-30T05:23:09;23.80;40.77
75155;HTU21D;63735;44.730;37.818;2023-09-30T05:25:39;23.95;40.46
75155;HTU21D;63735;44.730;37.818;2023-09-30T05:28:05;23.96;40.68
75155;HTU21D;63735;44.730;37.818;2023-09-30T05:30:33;24.00;40.62
75155;HTU21D;63735;44.730;37.818;2023-09-30T05:33:00;23.96;40.65
75155;HTU21D;63735;44.730;37.818;2023-09-30T05:35:26;23.82;41.07
75155;HTU21D;63735;44.730;37.818;2023-09-30T05:37:53;24.03;40.81
75155;HTU21D;63735;44.730;37.818;2023-09-30T05:40:22;24.28;40.41
75155;HTU21D;63735;44.730;37.818;2023-09-30T05:42:49;24.58;39.95
75155;HTU21D;63735;44.730;37.818;2023-09-30T05:45:15;24.94;39.36
75155;HTU21D;63735;44.730;37.818;2023-09-30T05:47:41;25.16;39.04
75155;HTU21D;63735;44.730;37.818;2023-09-30T05:50:08;25.19;39.10
75155;HTU21D;63735;44.730;37.818;2023-09-30T05:52:35;25.28;39.10
75155;HTU21D;63735;44.730;37.818;2023-09-30T05:55:02;25.13;39.47
75155;HTU21D;63735;44.730;37.818;2023-09-30T05:57:28;25.09;39.76
75155;HTU21D;63735;44.730;37.818;2023-09-30T05:59:54;25.01;39.86
75155;HTU21D;63735;44.730;37.818;2023-09-30T06:02:20;25.02;39.86
75155;HTU21D;63735;44.730;37.818;2023-09-30T06:04:46;25.03;39.81
75155;HTU21D;63735;44.730;37.818;2023-09-30T06:07:12;25.06;40.02
75155;HTU21D;63735;44.730;37.818;2023-09-30T06:09:38;25.21;40.04
75155;HTU21D;63735;44.730;37.818;2023-09-30T06:12:04;25.38;39.97
75155;HTU21D;63735;44.730;37.818;2023-09-30T06:14:32;25.62;39.62
75155;HTU21D;63735;44.730;37.818;2023-09-30T06:16:58;25.87;38.96
75155;HTU21D;63735;44.730;37.818;2023-09-30T06:19:24;26.03;38.52
75155;HTU21D;63735;44.730;37.818;2023-09-30T06:21:52;26.31;37.95
75155;HTU21D;63735;44.730;37.818;2023-09-30T06:24:18;26.41;37.85
75155;HTU21D;63735;44.730;37.818;2023-09-30T06:26:47;26.54;37.51
75155;HTU21D;63735;44.730;37.818;2023-09-30T06:29:14;26.57;37.48
75155;HTU21D;63735;44.730;37.818;2023-09-30T06:31:40;26.70;37.33
75155;HTU21D;63735;44.730;37.818;2023-09-30T06:34:06;26.77;37.24
75155;HTU21D;63735;44.730;37.818;2023-09-30T06:36:32;26.84;37.15
75155;HTU21D;63735;44.730;37.818;2023-09-30T06:38:58;26.93;37.05
75155;HTU21D;63735;44.730;37.818;2023-09-30T06:41:24;26.96;36.88
75155;HTU21D;63735;44.730;37.818;2023-09-30T06:43:51;27.01;36.56
75155;HTU21D;63735;44.730;37.818;2023-09-30T06:46:17;27.04;36.38
75155;HTU21D;63735;44.730;37.818;2023-09-30T06:48:43;27.12;36.14
75155;HTU21D;63735;44.730;37.818;2023-09-30T06:51:14;27.11;35.99
75155;HTU21D;63735;44.730;37.818;2023-09-30T06:53:43;27.23;36.08
75155;HTU21D;63735;44.730;37.818;2023-09-30T06:56:09;27.42;35.85
75155;HTU21D;63735;44.730;37.818;2023-09-30T06:58:35;27.47;35.64
75155;HTU21D;63735;44.730;37.818;2023-09-30T07:01:01;27.58;35.60
75155;HTU21D;63735;44.730;37.818;2023-09-30T07:03:27;27.70;35.34
75155;HTU21D;63735;44.730;37.818;2023-09-30T07:05:53;27.83;35.18
75155;HTU21D;63735;44.730;37.818;2023-09-30T07:08:22;27.98;34.86
75155;HTU21D;63735;44.730;37.818;2023-09-30T07:10:48;28.13;34.77
75155;HTU21D;63735;44.730;37.818;2023-09-30T07:13:18;28.35;34.63
75155;HTU21D;63735;44.730;37.818;2023-09-30T07:15:44;28.55;34.44
75155;HTU21D;63735;44.730;37.818;2023-09-30T07:18:10;28.64;34.11
75155;HTU21D;63735;44.730;37.818;2023-09-30T07:20:37;28.71;34.18
75155;HTU21D;63735;44.730;37.818;2023-09-30T07:23:03;28.84;33.92
75155;HTU21D;63735;44.730;37.818;2023-09-30T07:25:29;28.93;33.70
75155;HTU21D;63735;44.730;37.818;2023-09-30T07:28:01;29.06;33.64
75155;HTU21D;63735;44.730;37.818;2023-09-30T07:30:27;29.16;33.60
75155;HTU21D;63735;44.730;37.818;2023-09-30T07:32:53;29.36;33.50
75155;HTU21D;63735;44.730;37.818;2023-09-30T07:35:19;29.53;33.28
75155;HTU21D;63735;44.730;37.818;2023-09-30T07:37:45;29.78;32.75
75155;HTU21D;63735;44.730;37.818;2023-09-30T07:40:12;29.92;32.42
75155;HTU21D;63735;44.730;37.818;2023-09-30T07:42:38;30.15;32.12
75155;HTU21D;63735;44.730;37.818;2023-09-30T07:45:05;30.22;32.13
75155;HTU21D;63735;44.730;37.818;2023-09-30T07:47:31;30.49;31.80
75155;HTU21D;63735;44.730;37.818;2023-09-30T07:50:02;30.80;31.32
75155;HTU21D;63735;44.730;37.818;2023-09-30T07:52:32;30.95;31.22
75155;HTU21D;63735;44.730;37.818;2023-09-30T07:54:58;31.14;30.99
75155;HTU21D;63735;44.730;37.818;2023-09-30T07:57:24;31.42;30.66
75155;HTU21D;63735;44.730;37.818;2023-09-30T07:59:50;31.53;30.36
75155;HTU21D;63735;44.730;37.818;2023-09-30T08:02:16;31.71;29.99
75155;HTU21D;63735;44.730;37.818;2023-09-30T08:04:43;31.87;29.74
75155;HTU21D;63735;44.730;37.818;2023-09-30T08:07:09;32.09;29.56
75155;HTU21D;63735;44.730;37.818;2023-09-30T08:09:35;32.31;29.12
75155;HTU21D;63735;44.730;37.818;2023-09-30T08:12:03;32.49;28.79
75155;HTU21D;63735;44.730;37.818;2023-09-30T08:14:29;32.35;28.94
75155;HTU21D;63735;44.730;37.818;2023-09-30T08:16:55;31.97;29.72
75155;HTU21D;63735;44.730;37.818;2023-09-30T08:19:21;31.96;29.42
75155;HTU21D;63735;44.730;37.818;2023-09-30T08:21:47;32.18;28.90
75155;HTU21D;63735;44.730;37.818;2023-09-30T08:24:13;32.26;28.67
75155;HTU21D;63735;44.730;37.818;2023-09-30T08:26:39;32.24;28.39
75155;HTU21D;63735;44.730;37.818;2023-09-30T08:29:05;32.17;28.56
75155;HTU21D;63735;44.730;37.818;2023-09-30T08:31:32;32.18;28.44
75155;HTU21D;63735;44.730;37.818;2023-09-30T08:33:58;32.12;28.48
75155;HTU21D;63735;44.730;37.818;2023-09-30T08:36:24;32.13;28.43
75155;HTU21D;63735;44.730;37.818;2023-09-30T08:38:50;32.23;28.69
75155;HTU21D;63735;44.730;37.818;2023-09-30T08:41:36;31.93;29.25
75155;HTU21D;63735;44.730;37.818;2023-09-30T08:44:04;31.96;29.00
75155;HTU21D;63735;44.730;37.818;2023-09-30T08:46:32;32.07;28.75
75155;HTU21D;63735;44.730;37.818;2023-09-30T08:49:03;32.34;28.42
75155;HTU21D;63735;44.730;37.818;2023-09-30T08:51:30;32.49;28.24
75155;HTU21D;63735;44.730;37.818;2023-09-30T08:53:58;32.72;28.00
75155;HTU21D;63735;44.730;37.818;2023-09-30T08:56:27;32.92;27.62
75155;HTU21D;63735;44.730;37.818;2023-09-30T08:58:57;33.04;27.46
75155;HTU21D;63735;44.730;37.818;2023-09-30T09:01:31;33.09;27.41
75155;HTU21D;63735;44.730;37.818;2023-09-30T09:03:57;33.18;27.12
75155;HTU21D;63735;44.730;37.818;2023-09-30T09:06:24;33.14;27.16
75155;HTU21D;63735;44.730;37.818;2023-09-30T09:08:51;33.21;27.20
75155;HTU21D;63735;44.730;37.818;2023-09-30T09:11:17;33.34;26.91
75155;HTU21D;63735;44.730;37.818;2023-09-30T09:13:48;33.40;26.81
75155;HTU21D;63735;44.730;37.818;2023-09-30T09:16:17;33.36;26.76
75155;HTU21D;63735;44.730;37.818;2023-09-30T09:18:46;33.34;26.81
75155;HTU21D;63735;44.730;37.818;2023-09-30T09:21:21;33.45;26.79
75155;HTU21D;63735;44.730;37.818;2023-09-30T09:23:50;33.60;26.75
75155;HTU21D;63735;44.730;37.818;2023-09-30T09:26:26;33.74;26.57
75155;HTU21D;63735;44.730;37.818;2023-09-30T09:29:00;33.80;26.49
75155;HTU21D;63735;44.730;37.818;2023-09-30T09:31:27;33.93;26.54
75155;HTU21D;63735;44.730;37.818;2023-09-30T09:33:53;33.90;26.33
75155;HTU21D;63735;44.730;37.818;2023-09-30T09:36:19;33.88;26.21
75155;HTU21D;63735;44.730;37.818;2023-09-30T09:38:49;33.92;26.04
75155;HTU21D;63735;44.730;37.818;2023-09-30T09:41:20;33.93;25.98
75155;HTU21D;63735;44.730;37.818;2023-09-30T09:43:48;33.96;25.82
75155;HTU21D;63735;44.730;37.818;2023-09-30T09:46:17;33.85;25.85
75155;HTU21D;63735;44.730;37.818;2023-09-30T09:48:45;33.76;25.88
75155;HTU21D;63735;44.730;37.818;2023-09-30T09:51:13;33.73;25.86
75155;HTU21D;63735;44.730;37.818;2023-09-30T09:53:40;33.66;26.04
75155;HTU21D;63735;44.730;37.818;2023-09-30T09:56:08;33.50;26.18
75155;HTU21D;63735;44.730;37.818;2023-09-30T09:58:36;33.50;26.14
75155;HTU21D;63735;44.730;37.818;2023-09-30T10:01:05;33.46;26.15
75155;HTU21D;63735;44.730;37.818;2023-09-30T10:03:32;33.55;26.06
75155;HTU21D;63735;44.730;37.818;2023-09-30T10:05:59;33.29;26.14
75155;HTU21D;63735;44.730;37.818;2023-09-30T10:08:36;33.04;26.58
75155;HTU21D;63735;44.730;37.818;2023-09-30T10:11:03;33.22;26.53
75155;HTU21D;63735;44.730;37.818;2023-09-30T10:19:20;33.41;26.33
75155;HTU21D;63735;44.730;37.818;2023-09-30T10:24:42;33.33;26.39
75155;HTU21D;63735;44.730;37.818;2023-09-30T10:35:21;33.42;26.04
75155;HTU21D;63735;44.730;37.818;2023-09-30T10:40:52;33.26;26.46
75155;HTU21D;63735;44.730;37.818;2023-09-30T10:43:40;33.29;26.52
75155;HTU21D;63735;44.730;37.818;2023-09-30T10:48:54;33.70;26.20
75155;HTU21D;63735;44.730;37.818;2023-09-30T10:51:21;33.94;26.14
75155;HTU21D;63735;44.730;37.818;2023-09-30T10:53:48;33.88;26.04
75155;HTU21D;63735;44.730;37.818;2023-09-30T10:56:15;33.78;26.14
75155;HTU21D;63735;44.730;37.818;2023-09-30T10:58:41;33.82;26.23
75155;HTU21D;63735;44.730;37.818;2023-09-30T11:01:08;34.11;25.99
75155;HTU21D;63735;44.730;37.818;2023-09-30T11:03:34;34.29;25.67
75155;HTU21D;63735;44.730;37.818;2023-09-30T11:06:00;34.26;25.88
75155;HTU21D;63735;44.730;37.818;2023-09-30T11:08:29;34.46;25.61
75155;HTU21D;63735;44.730;37.818;2023-09-30T11:10:58;34.56;25.43
75155;HTU21D;63735;44.730;37.818;2023-09-30T11:13:33;34.69;25.34
75155;HTU21D;63735;44.730;37.818;2023-09-30T11:16:03;34.82;25.15
75155;HTU21D;63735;44.730;37.818;2023-09-30T11:18:33;34.95;25.12
75155;HTU21D;63735;44.730;37.818;2023-09-30T11:21:10;35.06;24.88
75155;HTU21D;63735;44.730;37.818;2023-09-30T11:23:37;34.99;24.87
75155;HTU21D;63735;44.730;37.818;2023-09-30T11:26:04;34.88;24.97
75155;HTU21D;63735;44.730;37.818;2023-09-30T11:28:41;34.85;25.14
75155;HTU21D;63735;44.730;37.818;2023-09-30T11:31:11;34.84;25.08
75155;HTU21D;63735;44.730;37.818;2023-09-30T11:33:52;33.27;27.58
75155;HTU21D;63735;44.730;37.818;2023-09-30T11:36:21;32.26;29.62
75155;HTU21D;63735;44.730;37.818;2023-09-30T11:38:49;31.69;30.96
75155;HTU21D;63735;44.730;37.818;2023-09-30T11:41:16;31.73;31.37
75155;HTU21D;63735;44.730;37.818;2023-09-30T11:44:19;31.52;31.61
75155;HTU21D;63735;44.730;37.818;2023-09-30T11:46:56;31.19;32.66
75155;HTU21D;63735;44.730;37.818;2023-09-30T11:49:35;31.10;33.45
75155;HTU21D;63735;44.730;37.818;2023-09-30T11:52:09;31.01;34.36
75155;HTU21D;63735;44.730;37.818;2023-09-30T11:54:38;31.21;34.63
75155;HTU21D;63735;44.730;37.818;2023-09-30T11:57:07;31.46;34.40
75155;HTU21D;63735;44.730;37.818;2023-09-30T11:59:37;31.36;34.12
75155;HTU21D;63735;44.730;37.818;2023-09-30T12:02:03;31.26;34.30
75155;HTU21D;63735;44.730;37.818;2023-09-30T12:04:31;31.15;34.36
75155;HTU21D;63735;44.730;37.818;2023-09-30T12:06:57;31.15;34.68
75155;HTU21D;63735;44.730;37.818;2023-09-30T12:09:23;31.24;35.15
75155;HTU21D;63735;44.730;37.818;2023-09-30T12:11:54;31.19;34.97
75155;HTU21D;63735;44.730;37.818;2023-09-30T12:14:20;31.04;34.93
75155;HTU21D;63735;44.730;37.818;2023-09-30T12:16:46;31.09;35.15
75155;HTU21D;63735;44.730;37.818;2023-09-30T12:19:14;31.40;34.97
75155;HTU21D;63735;44.730;37.818;2023-09-30T12:21:41;31.36;35.47
75155;HTU21D;63735;44.730;37.818;2023-09-30T12:24:08;31.22;36.66
75155;HTU21D;63735;44.730;37.818;2023-09-30T12:26:37;31.14;37.34
75155;HTU21D;63735;44.730;37.818;2023-09-30T12:29:04;30.81;38.59
75155;HTU21D;63735;44.730;37.818;2023-09-30T12:31:31;30.42;40.65
75155;HTU21D;63735;44.730;37.818;2023-09-30T12:33:58;29.87;42.70
75155;HTU21D;63735;44.730;37.818;2023-09-30T12:36:25;29.85;42.94
75155;HTU21D;63735;44.730;37.818;2023-09-30T12:38:51;29.80;43.55
75155;HTU21D;63735;44.730;37.818;2023-09-30T12:41:17;29.58;44.38
75155;HTU21D;63735;44.730;37.818;2023-09-30T12:43:45;29.32;44.90
75155;HTU21D;63735;44.730;37.818;2023-09-30T12:46:11;29.43;44.60
75155;HTU21D;63735;44.730;37.818;2023-09-30T12:48:41;29.50;44.48
75155;HTU21D;63735;44.730;37.818;2023-09-30T12:51:07;29.41;44.56
75155;HTU21D;63735;44.730;37.818;2023-09-30T12:53:35;29.49;44.38
75155;HTU21D;63735;44.730;37.818;2023-09-30T12:56:01;29.45;44.81
75155;HTU21D;63735;44.730;37.818;2023-09-30T12:58:27;29.30;46.11
75155;HTU21D;63735;44.730;37.818;2023-09-30T13:00:56;29.23;47.02
75155;HTU21D;63735;44.730;37.818;2023-09-30T13:03:23;29.75;46.70
75155;HTU21D;63735;44.730;37.818;2023-09-30T13:05:49;30.08;46.24
75155;HTU21D;63735;44.730;37.818;2023-09-30T13:08:16;30.22;46.04
75155;HTU21D;63735;44.730;37.818;2023-09-30T13:10:42;29.82;47.00
75155;HTU21D;63735;44.730;37.818;2023-09-30T13:13:09;29.62;47.50
75155;HTU21D;63735;44.730;37.818;2023-09-30T13:15:35;29.54;47.75
75155;HTU21D;63735;44.730;37.818;2023-09-30T13:18:03;29.65;47.50
75155;HTU21D;63735;44.730;37.818;2023-09-30T13:20:30;29.61;47.63
75155;HTU21D;63735;44.730;37.818;2023-09-30T13:22:55;29.82;47.36
75155;HTU21D;63735;44.730;37.818;2023-09-30T13:25:22;29.95;47.15
75155;HTU21D;63735;44.730;37.818;2023-09-30T13:27:48;30.08;46.49
75155;HTU21D;63735;44.730;37.818;2023-09-30T13:30:14;29.94;46.63
75155;HTU21D;63735;44.730;37.818;2023-09-30T13:32:40;30.04;46.31
75155;HTU21D;63735;44.730;37.818;2023-09-30T13:35:07;30.19;45.83
75155;HTU21D;63735;44.730;37.818;2023-09-30T13:37:33;30.12;45.76
75155;HTU21D;63735;44.730;37.818;2023-09-30T13:40:00;29.83;46.36
75155;HTU21D;63735;44.730;37.818;2023-09-30T13:42:27;29.46;47.17
75155;HTU21D;63735;44.730;37.818;2023-09-30T13:44:54;29.07;48.14
75155;HTU21D;63735;44.730;37.818;2023-09-30T13:47:27;28.83;48.73
75155;HTU21D;63735;44.730;37.818;2023-09-30T13:49:53;28.99;48.65
75155;HTU21D;63735;44.730;37.818;2023-09-30T13:52:19;29.32;48.02
75155;HTU21D;63735;44.730;37.818;2023-09-30T13:54:44;29.28;47.63
75155;HTU21D;63735;44.730;37.818;2023-09-30T13:57:10;28.90;48.02
75155;HTU21D;63735;44.730;37.818;2023-09-30T13:59:36;28.71;48.30
75155;HTU21D;63735;44.730;37.818;2023-09-30T14:02:02;28.79;47.78
75155;HTU21D;63735;44.730;37.818;2023-09-30T14:04:32;28.87;47.60
75155;HTU21D;63735;44.730;37.818;2023-09-30T14:06:58;29.00;47.38
75155;HTU21D;63735;44.730;37.818;2023-09-30T14:09:26;28.69;47.69
75155;HTU21D;63735;44.730;37.818;2023-09-30T14:11:53;28.19;48.55
75155;HTU21D;63735;44.730;37.818;2023-09-30T14:14:19;27.89;49.24
75155;HTU21D;63735;44.730;37.818;2023-09-30T14:16:45;27.84;49.37
75155;HTU21D;63735;44.730;37.818;2023-09-30T14:19:13;27.63;49.61
75155;HTU21D;63735;44.730;37.818;2023-09-30T14:21:42;27.30;50.05
75155;HTU21D;63735;44.730;37.818;2023-09-30T14:24:08;27.12;50.46
75155;HTU21D;63735;44.730;37.818;2023-09-30T14:26:34;27.09;50.37
75155;HTU21D;63735;44.730;37.818;2023-09-30T14:29:00;27.02;50.47
75155;HTU21D;63735;44.730;37.818;2023-09-30T14:31:26;27.06;50.59
75155;HTU21D;63735;44.730;37.818;2023-09-30T14:33:52;27.06;50.82
75155;HTU21D;63735;44.730;37.818;2023-09-30T14:36:18;26.95;51.36
75155;HTU21D;63735;44.730;37.818;2023-09-30T14:38:45;26.91;51.56
75155;HTU21D;63735;44.730;37.818;2023-09-30T14:41:11;26.82;50.68
75155;HTU21D;63735;44.730;37.818;2023-09-30T14:43:40;26.85;49.94
75155;HTU21D;63735;44.730;37.818;2023-09-30T14:46:06;26.84;48.95
75155;HTU21D;63735;44.730;37.818;2023-09-30T14:48:34;26.84;48.31
75155;HTU21D;63735;44.730;37.818;2023-09-30T14:51:01;26.80;47.38
75155;HTU21D;63735;44.730;37.818;2023-09-30T14:53:30;26.77;46.16
75155;HTU21D;63735;44.730;37.818;2023-09-30T14:55:56;26.71;45.03
75155;HTU21D;63735;44.730;37.818;2023-09-30T14:58:22;26.66;44.49
75155;HTU21D;63735;44.730;37.818;2023-09-30T15:00:48;26.57;43.93
75155;HTU21D;63735;44.730;37.818;2023-09-30T15:03:14;26.53;43.74
75155;HTU21D;63735;44.730;37.818;2023-09-30T15:05:40;26.48;43.34
75155;HTU21D;63735;44.730;37.818;2023-09-30T15:08:06;26.41;43.24
75155;HTU21D;63735;44.730;37.818;2023-09-30T15:10:34;26.34;42.84
75155;HTU21D;63735;44.730;37.818;2023-09-30T15:13:01;26.28;42.73
75155;HTU21D;63735;44.730;37.818;2023-09-30T15:15:27;26.23;42.52
75155;HTU21D;63735;44.730;37.818;2023-09-30T15:17:53;26.16;42.42
75155;HTU21D;63735;44.730;37.818;2023-09-30T15:20:20;26.11;42.44
75155;HTU21D;63735;44.730;37.818;2023-09-30T15:22:46;26.06;42.38
75155;HTU21D;63735;44.730;37.818;2023-09-30T15:25:12;25.98;42.32
75155;HTU21D;63735;44.730;37.818;2023-09-30T15:27:38;25.93;42.32